Time;durP1;ratioP1;P1;durP2;ratioP2;P2;SDS_P1;SDS_P2;PMS_P1;PMS_P2;Temp;Humidity;BMP_temperature;BMP_pressure;BME280_temperature;BME280_humidity;BME280_pressure;Samples;Min_cycle;Max_cycle;Signal;HPM_P1;HPM_P2
2022/02/21 00:01:51;;;;;;;10.25;1.98;;;6.60;99.90;;;;;;5070617;28;20517;-44
2022/02/21 00:04:17;;;;;;;7.20;1.65;;;6.60;99.90;;;;;;5072865;28;20111;-43
2022/02/21 00:06:43;;;;;;;9.90;1.42;;;6.70;99.90;;;;;;5067389;28;20151;-43
2022/02/21 00:09:09;;;;;;;8.48;1.67;;;6.70;99.90;;;;;;5075900;28;20063;-44
2022/02/21 00:11:35;;;;;;;11.98;2.00;;;6.70;99.90;;;;;;5066645;28;20035;-43
2022/02/21 00:14:00;;;;;;;10.20;1.55;;;6.70;99.90;;;;;;5077062;28;20029;-42
2022/02/21 00:16:26;;;;;;;10.45;1.90;;;6.70;99.90;;;;;;5066440;28;20035;-44
2022/02/21 00:18:52;;;;;;;10.05;1.92;;;6.70;99.90;;;;;;5081183;28;20454;-44
2022/02/21 00:21:18;;;;;;;14.18;1.95;;;6.70;99.90;;;;;;5068799;28;20060;-43
2022/02/21 00:23:43;;;;;;;8.77;2.20;;;6.70;99.90;;;;;;5082037;28;20383;-43
2022/02/21 00:26:09;;;;;;;11.80;2.10;;;6.70;99.90;;;;;;5068255;28;20020;-43
2022/02/21 00:28:34;;;;;;;12.95;2.80;;;6.60;99.90;;;;;;5081053;28;20032;-42
2022/02/21 00:31:00;;;;;;;10.82;1.98;;;6.50;99.90;;;;;;5069606;28;20025;-43
2022/02/21 00:33:25;;;;;;;14.65;2.65;;;6.40;99.90;;;;;;5077187;28;20118;-42
2022/02/21 00:35:51;;;;;;;13.50;3.15;;;6.10;99.90;;;;;;5072280;28;20029;-43
2022/02/21 00:38:17;;;;;;;16.10;2.13;;;6.00;99.90;;;;;;5075281;28;20076;-43
2022/02/21 00:40:42;;;;;;;10.52;2.33;;;5.90;99.90;;;;;;5073958;28;20056;-43
2022/02/21 00:43:08;;;;;;;9.80;2.42;;;5.90;99.90;;;;;;5073267;28;20518;-44
2022/02/21 00:45:33;;;;;;;12.50;2.78;;;5.90;99.90;;;;;;5077024;28;20408;-43
2022/02/21 00:47:59;;;;;;;15.77;2.80;;;6.00;99.90;;;;;;5069687;28;20155;-43
2022/02/21 00:50:25;;;;;;;14.20;2.55;;;6.00;99.90;;;;;;5076850;28;20084;-44
2022/02/21 00:52:51;;;;;;;12.63;2.55;;;6.00;99.90;;;;;;5069475;28;20059;-43
2022/02/21 00:55:17;;;;;;;19.23;3.75;;;6.00;99.90;;;;;;5078496;28;20037;-43
2022/02/21 00:57:43;;;;;;;13.07;3.35;;;6.00;99.90;;;;;;5068751;28;20119;-42
2022/02/21 01:00:09;;;;;;;10.77;3.53;;;6.10;99.90;;;;;;5080528;28;20169;-44
2022/02/21 01:02:34;;;;;;;19.15;3.40;;;6.00;99.90;;;;;;5067527;28;20120;-43
2022/02/21 01:05:00;;;;;;;14.80;2.78;;;6.10;99.90;;;;;;5080858;28;20149;-43
2022/02/21 01:07:26;;;;;;;11.05;2.60;;;6.10;99.90;;;;;;5067943;28;20490;-43
2022/02/21 01:09:51;;;;;;;18.40;3.28;;;6.00;99.90;;;;;;5078913;28;20518;-43
2022/02/21 01:12:17;;;;;;;16.13;2.58;;;5.90;99.90;;;;;;5069484;28;20034;-43
2022/02/21 01:14:43;;;;;;;14.15;2.88;;;5.70;99.90;;;;;;5076559;28;20430;-43
2022/02/21 01:17:09;;;;;;;10.43;2.33;;;5.50;99.90;;;;;;5070544;28;20066;-44
2022/02/21 01:19:35;;;;;;;13.18;2.72;;;5.50;99.90;;;;;;5074267;28;20107;-42
2022/02/21 01:22:03;;;;;;;10.52;2.60;;;5.40;99.90;;;;;;5074308;28;20112;-44
2022/02/21 01:24:29;;;;;;;8.30;2.10;;;5.30;99.90;;;;;;5070450;28;20438;-44
2022/02/21 01:26:55;;;;;;;10.45;2.03;;;5.20;99.90;;;;;;5077580;28;20056;-43
2022/02/21 01:29:21;;;;;;;13.88;2.70;;;5.20;99.90;;;;;;5067807;28;20056;-42
2022/02/21 01:31:47;;;;;;;15.40;2.97;;;5.20;99.90;;;;;;5079129;28;20108;-43
2022/02/21 01:34:13;;;;;;;13.05;2.50;;;5.20;99.90;;;;;;5068956;28;20036;-43
2022/02/21 01:36:40;;;;;;;11.35;2.75;;;5.20;99.90;;;;;;5078204;28;20021;-43
2022/02/21 01:39:07;;;;;;;16.85;3.13;;;5.20;99.90;;;;;;5068178;28;20102;-43
2022/02/21 01:41:33;;;;;;;21.65;2.92;;;5.30;99.90;;;;;;5079333;28;20028;-43
2022/02/21 01:44:07;;;;;;;11.38;3.00;;;5.30;99.90;;;;;;5067277;28;20028;-43
2022/02/21 01:46:33;;;;;;;15.40;2.63;;;5.40;99.90;;;;;;5079650;28;20044;-43
2022/02/21 01:48:59;;;;;;;15.90;2.83;;;5.50;99.90;;;;;;5068761;28;20031;-44
2022/02/21 01:51:25;;;;;;;16.58;2.47;;;5.50;99.90;;;;;;5073777;28;20464;-43
2022/02/21 01:53:50;;;;;;;11.02;2.40;;;5.60;99.90;;;;;;5087673;28;20063;-43
2022/02/21 01:56:16;;;;;;;11.77;2.53;;;5.60;99.90;;;;;;5076790;28;20063;-43
2022/02/21 01:58:41;;;;;;;12.75;2.88;;;5.60;99.90;;;;;;5084601;28;20073;-43
2022/02/21 02:01:07;;;;;;;9.15;2.10;;;5.60;99.90;;;;;;5080280;28;20833;-43
2022/02/21 02:03:32;;;;;;;15.45;2.90;;;5.60;99.90;;;;;;5082211;28;20514;-42
2022/02/21 02:05:58;;;;;;;17.40;3.40;;;5.60;99.90;;;;;;5081604;28;20107;-43
2022/02/21 02:08:23;;;;;;;11.25;2.47;;;5.60;99.90;;;;;;5079449;28;20028;-43
2022/02/21 02:10:49;;;;;;;15.20;2.55;;;5.60;99.90;;;;;;5085538;28;20026;-43
2022/02/21 02:13:14;;;;;;;12.70;2.83;;;5.60;99.90;;;;;;5075953;28;20032;-42
2022/02/21 02:15:40;;;;;;;15.68;2.40;;;5.70;99.90;;;;;;5086143;28;20120;-43
2022/02/21 02:18:06;;;;;;;11.38;2.25;;;5.70;99.90;;;;;;5075644;28;20062;-42
2022/02/21 02:20:31;;;;;;;12.25;3.25;;;5.70;99.90;;;;;;5085200;28;20024;-44
2022/02/21 02:22:57;;;;;;;12.85;2.67;;;5.70;99.90;;;;;;5075158;28;20474;-43
2022/02/21 02:25:22;;;;;;;15.25;2.75;;;5.70;99.90;;;;;;5086802;28;20016;-43
2022/02/21 02:27:48;;;;;;;12.10;2.45;;;5.70;99.90;;;;;;5073392;28;20556;-44
2022/02/21 02:30:14;;;;;;;14.07;2.90;;;5.70;99.90;;;;;;5086534;28;20077;-44
2022/02/21 02:32:39;;;;;;;11.80;2.65;;;5.70;99.90;;;;;;5074531;28;20578;-43
2022/02/21 02:35:06;;;;;;;15.32;3.08;;;5.70;99.90;;;;;;5086236;28;20643;-43
2022/02/21 02:37:32;;;;;;;10.73;2.72;;;5.80;99.90;;;;;;5077317;28;20029;-43
2022/02/21 02:39:58;;;;;;;12.77;2.55;;;5.70;99.90;;;;;;5082428;28;20039;-42
2022/02/21 02:42:24;;;;;;;14.45;2.53;;;5.70;99.90;;;;;;5079105;28;20078;-42
2022/02/21 02:44:49;;;;;;;15.55;3.03;;;5.50;99.90;;;;;;5081518;28;20028;-43
2022/02/21 02:47:15;;;;;;;16.50;3.08;;;5.40;99.90;;;;;;5081155;28;20491;-43
2022/02/21 02:49:41;;;;;;;12.05;2.92;;;5.30;99.90;;;;;;5078548;28;20133;-42
2022/02/21 02:52:07;;;;;;;11.65;3.20;;;5.30;99.90;;;;;;5084670;28;20484;-42
2022/02/21 02:54:33;;;;;;;16.52;3.28;;;5.30;99.90;;;;;;5074608;28;20643;-42
2022/02/21 02:56:59;;;;;;;15.85;2.40;;;5.30;99.90;;;;;;5085100;28;20631;-43
2022/02/21 02:59:25;;;;;;;14.65;2.67;;;5.30;99.90;;;;;;5075034;28;20036;-43
2022/02/21 03:01:52;;;;;;;22.25;3.78;;;5.30;99.90;;;;;;5085870;28;20043;-42
2022/02/21 03:04:18;;;;;;;14.02;3.25;;;5.30;99.90;;;;;;5073717;28;20031;-43
2022/02/21 03:06:43;;;;;;;12.68;2.60;;;5.30;99.90;;;;;;5087016;28;20024;-42
2022/02/21 03:09:09;;;;;;;11.18;2.55;;;5.30;99.90;;;;;;5072537;28;20028;-43
2022/02/21 03:11:35;;;;;;;13.45;2.30;;;5.30;99.90;;;;;;5086538;28;20036;-43
2022/02/21 03:14:00;;;;;;;11.93;2.35;;;5.30;99.90;;;;;;5075070;28;20143;-43
2022/02/21 03:16:27;;;;;;;11.60;2.08;;;5.20;99.90;;;;;;5084126;28;20028;-43
2022/02/21 03:18:53;;;;;;;11.43;2.75;;;5.20;99.90;;;;;;5077437;28;20104;-43
2022/02/21 03:21:18;;;;;;;11.23;2.35;;;5.20;99.90;;;;;;5082873;28;20115;-43
2022/02/21 03:23:44;;;;;;;11.85;2.13;;;5.20;99.90;;;;;;5079430;28;20029;-42
2022/02/21 03:26:09;;;;;;;12.55;2.30;;;5.20;99.90;;;;;;5079889;28;20030;-43
2022/02/21 03:28:35;;;;;;;16.90;2.75;;;5.20;99.90;;;;;;5082507;28;20442;-43
2022/02/21 03:31:00;;;;;;;12.88;2.42;;;5.30;99.90;;;;;;5077143;28;20043;-43
2022/02/21 03:33:26;;;;;;;12.23;2.55;;;5.40;99.90;;;;;;5084160;28;20024;-42
2022/02/21 03:35:51;;;;;;;14.95;2.55;;;5.40;99.90;;;;;;5075165;28;20149;-43
2022/02/21 03:38:17;;;;;;;12.50;2.53;;;5.40;99.90;;;;;;5083264;28;20555;-43
2022/02/21 03:40:43;;;;;;;11.98;2.58;;;5.20;99.90;;;;;;5075206;28;20046;-43
2022/02/21 03:43:09;;;;;;;11.43;2.42;;;5.20;99.90;;;;;;5085395;28;20101;-43
2022/02/21 03:45:34;;;;;;;13.15;2.05;;;5.10;99.90;;;;;;5072709;28;20032;-42
2022/02/21 03:48:00;;;;;;;18.88;2.80;;;5.00;99.90;;;;;;5086034;28;20028;-43
2022/02/21 03:50:26;;;;;;;12.35;2.60;;;5.00;99.90;;;;;;5071998;28;20079;-43
2022/02/21 03:52:51;;;;;;;12.95;2.53;;;5.00;99.90;;;;;;5087878;28;20051;-43
2022/02/21 03:55:17;;;;;;;10.20;2.15;;;5.10;99.90;;;;;;5078052;28;20436;-41
2022/02/21 03:57:42;;;;;;;11.40;2.10;;;5.10;99.90;;;;;;5087370;28;20181;-43
2022/02/21 04:00:14;;;;;;;12.80;2.45;;;5.10;99.90;;;;;;5081073;28;20395;-43
2022/02/21 04:02:40;;;;;;;14.15;2.63;;;5.10;99.90;;;;;;5085820;28;20024;-42
2022/02/21 04:05:07;;;;;;;10.45;2.35;;;5.10;99.90;;;;;;5082556;28;20020;-43
2022/02/21 04:07:33;;;;;;;18.05;2.83;;;5.10;99.90;;;;;;5083070;28;20039;-42
2022/02/21 04:10:00;;;;;;;12.10;2.75;;;5.20;99.90;;;;;;5085004;28;20043;-42
2022/02/21 04:12:25;;;;;;;14.38;2.50;;;5.10;99.90;;;;;;5079783;28;20419;-43
2022/02/21 04:14:50;;;;;;;18.98;3.40;;;5.20;99.90;;;;;;5087896;28;20577;-42
2022/02/21 04:17:16;;;;;;;15.80;3.55;;;5.20;99.90;;;;;;5077388;28;20024;-43
2022/02/21 04:19:42;;;;;;;13.80;3.42;;;5.20;99.90;;;;;;5087362;28;20408;-43
2022/02/21 04:22:10;;;;;;;14.88;2.80;;;5.20;99.90;;;;;;5077487;28;20131;-44
2022/02/21 04:24:37;;;;;;;11.63;2.38;;;5.30;99.90;;;;;;5088730;28;20443;-43
2022/02/21 04:27:03;;;;;;;16.58;2.90;;;5.40;99.90;;;;;;5076499;28;20202;-43
2022/02/21 04:29:28;;;;;;;12.10;2.45;;;5.40;99.90;;;;;;5088614;28;20103;-42
2022/02/21 04:31:54;;;;;;;11.95;2.83;;;5.40;99.90;;;;;;5076285;28;20472;-43
2022/02/21 04:34:19;;;;;;;15.40;3.35;;;5.40;99.90;;;;;;5087620;28;20043;-43
2022/02/21 04:36:45;;;;;;;13.52;2.28;;;5.50;99.90;;;;;;5077789;28;20428;-43
2022/02/21 04:39:10;;;;;;;16.08;3.38;;;5.50;99.90;;;;;;5087392;28;20488;-43
2022/02/21 04:41:36;;;;;;;11.45;3.60;;;5.50;99.90;;;;;;5079076;28;20024;-42
2022/02/21 04:44:01;;;;;;;9.98;2.50;;;5.60;99.90;;;;;;5085396;28;20024;-43
2022/02/21 04:46:27;;;;;;;13.73;2.55;;;5.50;99.90;;;;;;5080831;28;20025;-43
2022/02/21 04:48:53;;;;;;;9.15;2.38;;;5.60;99.90;;;;;;5082213;28;20024;-43
2022/02/21 04:51:18;;;;;;;10.00;2.38;;;5.50;99.90;;;;;;5085203;28;20053;-43
2022/02/21 04:53:44;;;;;;;15.43;2.80;;;5.50;99.90;;;;;;5078709;28;20040;-43
2022/02/21 04:56:09;;;;;;;11.68;2.50;;;5.40;99.90;;;;;;5087151;28;20549;-43
2022/02/21 04:58:35;;;;;;;12.88;2.05;;;5.40;99.90;;;;;;5076661;28;20032;-43
2022/02/21 05:01:00;;;;;;;12.45;2.92;;;5.40;99.90;;;;;;5086571;28;20031;-43
2022/02/21 05:03:26;;;;;;;8.70;1.90;;;5.40;99.90;;;;;;5076429;28;20036;-43
2022/02/21 05:05:51;;;;;;;7.50;2.15;;;5.50;99.90;;;;;;5088458;28;20017;-43
2022/02/21 05:08:17;;;;;;;10.75;1.83;;;5.40;99.90;;;;;;5074233;28;20016;-43
2022/02/21 05:10:43;;;;;;;7.03;1.83;;;5.40;99.90;;;;;;5088685;28;20021;-43
2022/02/21 05:13:09;;;;;;;10.48;2.35;;;5.40;99.90;;;;;;5075036;28;20024;-43
2022/02/21 05:15:35;;;;;;;11.38;2.20;;;5.40;99.90;;;;;;5087254;28;20093;-43
2022/02/21 05:18:00;;;;;;;9.57;2.58;;;5.50;99.90;;;;;;5077491;28;20064;-42
2022/02/21 05:20:26;;;;;;;12.20;2.40;;;5.50;99.90;;;;;;5085342;28;20036;-42
2022/02/21 05:22:51;;;;;;;11.70;2.38;;;5.50;99.90;;;;;;5079191;28;20033;-43
2022/02/21 05:25:17;;;;;;;7.53;2.25;;;5.50;99.90;;;;;;5082691;28;20089;-43
2022/02/21 05:27:43;;;;;;;14.43;2.70;;;5.50;99.90;;;;;;5082963;28;20020;-43
2022/02/21 05:30:10;;;;;;;8.25;2.15;;;5.60;99.90;;;;;;5079521;28;20399;-44
2022/02/21 05:32:35;;;;;;;13.68;2.72;;;5.60;99.90;;;;;;5084886;28;20054;-43
2022/02/21 05:35:02;;;;;;;8.98;2.17;;;5.60;99.90;;;;;;5077980;28;20036;-43
2022/02/21 05:37:28;;;;;;;7.78;2.30;;;5.60;99.90;;;;;;5084816;28;20054;-42
2022/02/21 05:39:53;;;;;;;8.13;2.05;;;5.60;99.90;;;;;;5076842;28;20027;-42
2022/02/21 05:42:19;;;;;;;8.32;2.45;;;5.60;99.90;;;;;;5085541;28;20020;-43
2022/02/21 05:44:45;;;;;;;11.75;2.40;;;5.60;99.90;;;;;;5075436;28;20033;-43
2022/02/21 05:47:10;;;;;;;9.10;2.08;;;5.50;99.90;;;;;;5086912;28;20028;-42
2022/02/21 05:49:36;;;;;;;9.73;2.80;;;5.50;99.90;;;;;;5077528;28;20588;-41
2022/02/21 05:52:03;;;;;;;10.82;2.50;;;5.40;99.90;;;;;;5087607;28;20044;-42
2022/02/21 05:54:29;;;;;;;8.75;2.38;;;5.40;99.90;;;;;;5074370;28;20123;-43
2022/02/21 05:56:55;;;;;;;9.27;2.13;;;5.30;99.90;;;;;;5066987;28;20013;-43
2022/02/21 05:59:21;;;;;;;9.82;2.70;;;5.30;99.90;;;;;;5076437;28;20491;-42
2022/02/21 06:01:46;;;;;;;9.68;2.33;;;5.30;99.90;;;;;;5069520;28;20499;-43
2022/02/21 06:04:12;;;;;;;16.35;2.47;;;5.30;99.90;;;;;;5073583;28;20668;-42
2022/02/21 06:06:37;;;;;;;13.65;2.83;;;5.30;99.90;;;;;;5072175;28;20029;-42
2022/02/21 06:09:04;;;;;;;10.02;2.47;;;5.30;99.90;;;;;;5071631;28;20028;-42
2022/02/21 06:11:30;;;;;;;11.85;2.47;;;5.20;99.90;;;;;;5073539;28;20071;-43
2022/02/21 06:13:56;;;;;;;10.57;2.92;;;5.20;99.90;;;;;;5068507;28;20068;-43
2022/02/21 06:16:22;;;;;;;8.20;2.03;;;5.20;99.90;;;;;;5076142;28;20443;-42
2022/02/21 06:18:47;;;;;;;10.82;2.30;;;5.20;99.90;;;;;;5067864;28;20016;-43
2022/02/21 06:21:13;;;;;;;12.05;2.42;;;5.20;99.90;;;;;;5078170;28;20482;-43
2022/02/21 06:23:39;;;;;;;6.43;1.88;;;5.20;99.90;;;;;;5067692;28;20312;-43
2022/02/21 06:26:05;;;;;;;9.13;2.30;;;5.10;99.90;;;;;;5078227;28;20080;-42
2022/02/21 06:28:31;;;;;;;12.35;2.80;;;5.10;99.90;;;;;;5065994;28;20032;-43
2022/02/21 06:30:57;;;;;;;11.18;2.20;;;5.10;99.90;;;;;;5079120;28;20035;-42
2022/02/21 06:33:23;;;;;;;14.80;2.67;;;5.00;99.90;;;;;;5065842;28;20065;-42
2022/02/21 06:35:48;;;;;;;11.48;2.78;;;5.10;99.90;;;;;;5078628;28;20039;-42
2022/02/21 06:38:14;;;;;;;13.52;2.55;;;5.10;99.90;;;;;;5066832;28;20350;-42
2022/02/21 06:40:39;;;;;;;12.82;2.45;;;5.10;99.90;;;;;;5075783;28;20065;-42
2022/02/21 06:43:05;;;;;;;12.35;2.70;;;5.20;99.90;;;;;;5074163;28;20111;-42
2022/02/21 06:45:31;;;;;;;11.10;2.70;;;5.20;99.90;;;;;;5089052;28;20141;-42
2022/02/21 06:47:57;;;;;;;13.52;2.80;;;5.20;99.90;;;;;;5084336;28;20472;-43
2022/02/21 06:50:25;;;;;;;11.55;2.88;;;5.20;99.90;;;;;;5074616;28;20050;-43
2022/02/21 06:52:51;;;;;;;14.45;3.70;;;5.20;99.90;;;;;;5072605;28;20057;-43
2022/02/21 06:55:16;;;;;;;12.30;2.53;;;5.20;99.90;;;;;;5066341;28;20040;-43
2022/02/21 06:57:46;;;;;;;12.30;2.40;;;5.20;99.90;;;;;;5075505;28;20012;-42
2022/02/21 07:00:14;;;;;;;11.30;2.25;;;5.30;99.90;;;;;;5065081;28;20028;-42
2022/02/21 07:02:40;;;;;;;17.15;2.92;;;5.40;99.90;;;;;;5077145;28;20025;-43
2022/02/21 07:05:07;;;;;;;9.18;2.65;;;5.40;99.90;;;;;;5066924;28;20764;-42
2022/02/21 07:07:35;;;;;;;12.07;2.78;;;5.40;99.90;;;;;;5076060;28;20028;-43
2022/02/21 07:10:04;;;;;;;14.10;3.22;;;5.50;99.90;;;;;;5065002;28;20578;-43
2022/02/21 07:12:29;;;;;;;13.13;2.75;;;5.50;99.90;;;;;;5093895;28;20054;-43
2022/02/21 07:14:55;;;;;;;11.02;2.60;;;5.50;99.90;;;;;;5085795;28;20625;-43
2022/02/21 07:17:20;;;;;;;14.45;3.58;;;5.60;99.90;;;;;;5093156;28;20474;-43
2022/02/21 07:19:46;;;;;;;12.23;2.40;;;5.60;99.90;;;;;;5091165;28;20059;-43
2022/02/21 07:22:12;;;;;;;10.40;2.40;;;5.70;99.90;;;;;;5085278;28;20012;-42
2022/02/21 07:24:38;;;;;;;12.30;2.85;;;5.70;99.90;;;;;;5067011;28;20025;-42
2022/02/21 07:27:04;;;;;;;8.50;2.20;;;5.70;99.90;;;;;;5076628;28;20031;-43
2022/02/21 07:29:31;;;;;;;14.30;3.10;;;5.70;99.90;;;;;;5072454;28;20593;-43
2022/02/21 07:31:57;;;;;;;10.75;2.85;;;5.70;99.90;;;;;;5075015;28;20058;-42
2022/02/21 07:34:23;;;;;;;14.88;2.58;;;5.80;99.90;;;;;;5076287;28;20643;-42
2022/02/21 07:36:48;;;;;;;13.65;2.50;;;5.80;99.90;;;;;;5071531;28;20028;-43
2022/02/21 07:39:14;;;;;;;10.77;2.42;;;5.80;99.90;;;;;;5078233;28;20136;-43
2022/02/21 07:41:39;;;;;;;10.38;2.28;;;5.80;99.90;;;;;;5070763;28;20031;-41
2022/02/21 07:44:06;;;;;;;9.23;2.50;;;5.90;99.90;;;;;;5082521;28;20036;-42
2022/02/21 07:46:31;;;;;;;16.85;3.05;;;5.90;99.90;;;;;;5106167;28;20028;-43
2022/02/21 07:48:57;;;;;;;13.88;2.15;;;5.90;99.90;;;;;;5080493;28;20066;-42
2022/02/21 07:51:23;;;;;;;9.50;2.67;;;5.90;99.90;;;;;;5068291;28;20027;-43
2022/02/21 07:53:48;;;;;;;9.07;2.30;;;6.00;99.90;;;;;;5081726;28;20123;-43
2022/02/21 07:56:14;;;;;;;12.15;2.45;;;6.00;99.90;;;;;;5068029;28;20032;-43
2022/02/21 07:58:39;;;;;;;15.65;3.22;;;6.00;99.90;;;;;;5083051;28;20081;-42
2022/02/21 08:01:05;;;;;;;16.20;2.85;;;6.10;99.90;;;;;;5068944;28;20537;-42
2022/02/21 08:03:30;;;;;;;8.40;2.13;;;6.10;99.90;;;;;;5078090;28;20534;-42
2022/02/21 08:05:57;;;;;;;15.88;3.28;;;6.20;99.90;;;;;;5071450;28;20024;-41
2022/02/21 08:08:22;;;;;;;6.38;2.03;;;6.20;99.90;;;;;;5075914;28;20055;-42
2022/02/21 08:10:48;;;;;;;11.15;2.13;;;6.30;99.90;;;;;;5073090;28;20059;-42
2022/02/21 08:13:13;;;;;;;11.68;2.10;;;6.30;99.90;;;;;;5072664;28;20051;-43
2022/02/21 08:15:39;;;;;;;10.73;2.70;;;6.30;99.90;;;;;;5076439;28;20438;-43
2022/02/21 08:18:04;;;;;;;12.70;2.88;;;6.30;99.90;;;;;;5070433;28;20024;-43
2022/02/21 08:20:30;;;;;;;11.63;2.40;;;6.30;99.90;;;;;;5078291;28;20535;-43
2022/02/21 08:22:56;;;;;;;12.93;2.42;;;6.30;99.90;;;;;;5068951;28;20028;-41
2022/02/21 08:25:21;;;;;;;11.95;2.15;;;6.30;99.90;;;;;;5078210;28;20024;-43
2022/02/21 08:27:47;;;;;;;10.48;2.28;;;6.30;99.90;;;;;;5069048;28;20033;-42
2022/02/21 08:30:19;;;;;;;9.63;2.22;;;6.30;99.90;;;;;;5080002;28;20112;-42
2022/02/21 08:32:45;;;;;;;8.68;2.05;;;6.30;99.90;;;;;;5067362;28;20056;-42
2022/02/21 08:35:11;;;;;;;9.45;2.28;;;6.30;99.90;;;;;;5080348;28;20079;-42
2022/02/21 08:37:38;;;;;;;9.82;2.25;;;6.30;99.90;;;;;;5066353;28;20511;-43
2022/02/21 08:40:06;;;;;;;10.05;2.70;;;6.30;99.90;;;;;;5079695;28;20524;-43
2022/02/21 08:42:31;;;;;;;9.75;2.30;;;6.30;99.90;;;;;;5067707;28;20045;-43
2022/02/21 08:45:00;;;;;;;10.55;2.22;;;6.30;99.90;;;;;;5078604;28;20031;-42
2022/02/21 08:47:26;;;;;;;11.27;2.42;;;6.30;99.90;;;;;;5068138;28;20456;-42
2022/02/21 08:49:51;;;;;;;8.35;1.90;;;6.30;99.90;;;;;;5077082;28;20523;-44
2022/02/21 08:52:17;;;;;;;13.52;2.10;;;6.20;99.90;;;;;;5082566;28;20047;-43
2022/02/21 08:54:44;;;;;;;13.18;2.88;;;6.20;99.90;;;;;;5072745;28;20495;-42
2022/02/21 08:57:09;;;;;;;8.98;2.45;;;6.20;99.90;;;;;;5074105;28;20020;-42
2022/02/21 08:59:35;;;;;;;11.27;2.40;;;6.00;99.90;;;;;;5070061;28;20021;-43
2022/02/21 09:02:01;;;;;;;13.05;2.30;;;6.00;99.90;;;;;;5076264;28;20028;-43
2022/02/21 09:04:27;;;;;;;10.48;2.13;;;5.90;99.90;;;;;;5068367;28;20025;-42
2022/02/21 09:06:52;;;;;;;12.68;2.22;;;5.80;99.90;;;;;;5078419;28;20027;-43
2022/02/21 09:09:24;;;;;;;11.57;2.95;;;5.70;99.90;;;;;;5067924;28;20047;-42
2022/02/21 09:11:50;;;;;;;18.25;3.08;;;5.60;99.90;;;;;;5079137;28;20020;-43
2022/02/21 09:14:16;;;;;;;11.60;2.70;;;5.50;99.90;;;;;;5063852;28;20499;-42
2022/02/21 09:16:42;;;;;;;11.02;2.25;;;5.50;99.90;;;;;;5079578;28;20535;-44
2022/02/21 09:19:07;;;;;;;11.70;2.22;;;5.40;99.90;;;;;;5067174;28;20170;-43
2022/02/21 09:21:33;;;;;;;10.77;2.35;;;5.40;99.90;;;;;;5078724;28;20028;-43
2022/02/21 09:23:58;;;;;;;10.98;2.50;;;5.30;99.90;;;;;;5066900;28;20043;-42
2022/02/21 09:26:24;;;;;;;9.18;2.28;;;5.30;99.90;;;;;;5078264;28;20028;-43
2022/02/21 09:28:50;;;;;;;8.80;2.38;;;5.20;99.90;;;;;;5067854;28;20028;-43
2022/02/21 09:31:15;;;;;;;13.73;3.20;;;5.10;99.90;;;;;;5075211;28;20426;-42
2022/02/21 09:33:41;;;;;;;11.13;2.30;;;5.00;99.90;;;;;;5070794;28;20524;-42
2022/02/21 09:36:07;;;;;;;12.93;2.70;;;5.00;99.90;;;;;;5072359;28;20540;-42
2022/02/21 09:38:32;;;;;;;9.27;2.72;;;5.00;99.90;;;;;;5073262;28;20031;-43
2022/02/21 09:40:58;;;;;;;10.77;2.47;;;4.90;99.90;;;;;;5070291;28;20051;-43
2022/02/21 09:43:27;;;;;;;10.02;2.45;;;4.90;99.90;;;;;;5074705;28;20128;-43
2022/02/21 09:46:02;;;;;;;8.98;2.13;;;4.90;99.90;;;;;;5068129;28;20028;-43
2022/02/21 09:48:28;;;;;;;11.05;2.60;;;4.80;99.90;;;;;;5076751;28;20142;-42
2022/02/21 09:51:01;;;;;;;9.57;2.25;;;4.80;99.90;;;;;;5084724;28;20029;-44
2022/02/21 09:53:32;;;;;;;9.85;2.13;;;4.70;99.90;;;;;;5074600;28;20051;-44
2022/02/21 09:55:58;;;;;;;10.25;1.92;;;4.70;99.90;;;;;;5084735;28;20076;-44
2022/02/21 09:58:25;;;;;;;8.82;2.33;;;4.70;99.90;;;;;;5074894;28;20012;-44
2022/02/21 10:00:53;;;;;;;5.68;2.38;;;4.60;99.90;;;;;;5086164;28;20032;-45
2022/02/21 10:03:38;;;;;;;11.93;2.55;;;4.60;99.90;;;;;;5078712;28;20026;-42
2022/02/21 10:06:24;;;;;;;12.38;2.63;;;4.70;99.90;;;;;;5105238;28;20137;-43
2022/02/21 10:09:10;;;;;;;7.80;2.40;;;4.70;99.90;;;;;;5088448;28;20078;-43
2022/02/21 10:11:41;;;;;;;10.15;2.70;;;4.70;99.90;;;;;;5096621;28;20079;-43
2022/02/21 10:14:09;;;;;;;14.23;3.05;;;4.70;99.90;;;;;;5077522;28;20036;-43
2022/02/21 10:16:56;;;;;;;14.35;3.25;;;4.70;99.90;;;;;;5089599;28;20374;-42
2022/02/21 10:19:26;;;;;;;13.65;3.00;;;4.80;99.90;;;;;;5074176;28;20546;-44
2022/02/21 10:22:14;;;;;;;12.27;3.10;;;4.80;99.90;;;;;;5084759;28;20056;-44
2022/02/21 10:24:47;;;;;;;9.57;3.28;;;4.80;99.90;;;;;;5075521;28;20039;-43
2022/02/21 10:27:22;;;;;;;15.52;3.08;;;4.80;99.90;;;;;;5084341;28;20039;-43
2022/02/21 10:30:00;;;;;;;14.50;3.38;;;4.90;99.90;;;;;;5075787;28;20028;-42
2022/02/21 10:32:28;;;;;;;10.40;3.22;;;4.90;99.90;;;;;;5083648;28;20016;-42
2022/02/21 10:34:55;;;;;;;18.30;3.22;;;4.90;99.90;;;;;;5074916;28;20031;-44
2022/02/21 10:37:26;;;;;;;10.45;2.83;;;4.90;99.90;;;;;;5083840;28;20078;-43
2022/02/21 10:40:10;;;;;;;12.52;2.85;;;4.80;99.90;;;;;;5068753;28;20390;-43
2022/02/21 10:42:36;;;;;;;11.93;3.08;;;4.80;99.90;;;;;;5066803;28;20102;-42
2022/02/21 10:45:17;;;;;;;11.98;2.90;;;4.80;99.90;;;;;;5075914;28;20032;-43
2022/02/21 10:48:02;;;;;;;14.73;3.38;;;4.80;99.90;;;;;;5067423;28;20049;-43
2022/02/21 10:50:29;;;;;;;14.68;2.42;;;4.80;99.90;;;;;;5078157;28;20836;-42
2022/02/21 10:52:55;;;;;;;8.23;2.22;;;4.80;99.90;;;;;;5083324;28;20107;-42
2022/02/21 10:55:29;;;;;;;14.40;2.67;;;4.70;99.90;;;;;;5073661;28;20044;-42
2022/02/21 10:57:55;;;;;;;12.80;2.40;;;4.70;99.90;;;;;;5084747;28;20740;-43
2022/02/21 11:00:20;;;;;;;13.60;2.88;;;4.70;99.90;;;;;;5073010;28;20106;-43
2022/02/21 11:02:46;;;;;;;11.48;2.38;;;4.70;99.90;;;;;;5085052;28;20033;-43
2022/02/21 11:05:12;;;;;;;8.63;2.17;;;4.80;99.90;;;;;;5072502;28;20051;-43
2022/02/21 11:07:41;;;;;;;8.85;2.03;;;4.80;99.90;;;;;;5085723;28;20055;-43
2022/02/21 11:10:08;;;;;;;11.05;2.50;;;4.80;99.90;;;;;;5072445;28;20106;-43
2022/02/21 11:12:37;;;;;;;10.45;2.83;;;4.90;99.90;;;;;;5085216;28;20058;-42
2022/02/21 11:15:04;;;;;;;13.57;2.42;;;4.90;99.90;;;;;;5072560;28;20040;-43
2022/02/21 11:17:30;;;;;;;9.30;2.60;;;4.90;99.90;;;;;;5084053;28;20567;-43
2022/02/21 11:19:56;;;;;;;9.15;2.88;;;4.90;99.90;;;;;;5075936;28;20099;-43
2022/02/21 11:22:22;;;;;;;12.15;2.70;;;4.90;99.90;;;;;;5080176;28;20106;-44
2022/02/21 11:25:06;;;;;;;16.92;2.90;;;5.00;99.90;;;;;;5079195;28;20369;-44
2022/02/21 11:27:43;;;;;;;13.23;3.45;;;5.00;99.90;;;;;;5080349;28;20041;-44
2022/02/21 11:30:13;;;;;;;13.00;3.00;;;5.00;99.90;;;;;;5076297;28;20060;-45
2022/02/21 11:33:00;;;;;;;14.60;3.42;;;5.00;99.90;;;;;;5081723;28;20028;-42
2022/02/21 11:35:25;;;;;;;15.90;3.15;;;5.10;99.90;;;;;;5075379;28;20115;-44
2022/02/21 11:37:51;;;;;;;18.42;3.70;;;5.10;99.90;;;;;;5081720;28;20088;-43
2022/02/21 11:40:17;;;;;;;16.63;4.07;;;5.10;99.90;;;;;;5077965;28;20051;-44
2022/02/21 11:42:42;;;;;;;20.30;3.47;;;5.20;99.90;;;;;;5078505;28;20141;-43
2022/02/21 11:45:25;;;;;;;16.52;2.92;;;5.30;99.90;;;;;;5081038;28;20024;-44
2022/02/21 11:47:56;;;;;;;15.50;3.72;;;5.30;99.90;;;;;;5078763;28;20085;-44
2022/02/21 11:50:28;;;;;;;20.92;4.30;;;5.40;99.90;;;;;;5076159;28;20020;-42
2022/02/21 11:52:56;;;;;;;21.37;3.93;;;5.40;99.90;;;;;;5072148;28;20056;-43
2022/02/21 11:55:32;;;;;;;24.67;4.00;;;5.50;99.90;;;;;;5066319;28;20295;-44
2022/02/21 11:57:59;;;;;;;25.05;4.22;;;5.50;99.90;;;;;;5073087;28;20120;-42
2022/02/21 12:00:40;;;;;;;21.98;4.90;;;5.60;99.90;;;;;;5066134;28;20023;-42
2022/02/21 12:03:25;;;;;;;26.88;5.45;;;5.70;99.90;;;;;;5073139;28;20834;-42
2022/02/21 12:05:56;;;;;;;20.80;4.88;;;5.80;99.90;;;;;;5068825;28;20072;-42
2022/02/21 12:08:25;;;;;;;21.10;4.28;;;5.90;99.90;;;;;;5071934;28;20064;-43
2022/02/21 12:11:15;;;;;;;19.05;4.20;;;6.00;99.90;;;;;;5066819;28;20033;-43
2022/02/21 12:13:50;;;;;;;24.13;4.45;;;6.10;99.90;;;;;;5073652;28;20048;-42
2022/02/21 12:16:20;;;;;;;24.42;4.70;;;6.10;99.90;;;;;;5071998;28;20032;-42
2022/02/21 12:18:48;;;;;;;29.92;6.35;;;6.20;99.90;;;;;;5075395;28;20024;-43
2022/02/21 12:21:21;;;;;;;23.77;4.80;;;6.30;99.90;;;;;;5071212;28;20021;-42
2022/02/21 12:23:52;;;;;;;21.75;4.40;;;6.40;99.90;;;;;;5076447;28;20032;-41
2022/02/21 12:26:32;;;;;;;29.70;5.00;;;6.40;99.90;;;;;;5069677;28;20037;-44
2022/02/21 12:29:17;;;;;;;29.10;5.10;;;6.50;99.90;;;;;;5076976;28;20050;-43
2022/02/21 12:31:59;;;;;;;24.67;4.90;;;6.60;99.90;;;;;;5071722;28;20028;-43
2022/02/21 12:34:27;;;;;;;24.02;4.50;;;6.60;99.90;;;;;;5074102;28;20131;-43
2022/02/21 12:37:01;;;;;;;25.90;5.07;;;6.70;99.90;;;;;;5071893;28;20052;-44
2022/02/21 12:39:30;;;;;;;30.67;4.50;;;6.70;99.90;;;;;;5075422;28;20024;-43
2022/02/21 12:41:55;;;;;;;19.10;3.83;;;6.70;99.90;;;;;;5070527;28;20535;-44
2022/02/21 12:44:21;;;;;;;26.33;4.97;;;6.80;99.90;;;;;;5077255;28;20017;-44
2022/02/21 12:46:54;;;;;;;24.50;5.97;;;6.80;99.90;;;;;;5069323;28;20027;-43
2022/02/21 12:49:29;;;;;;;26.73;4.68;;;6.90;99.90;;;;;;5078490;28;20033;-43